createdAt,value
2024-01-19T00:00:15.710Z,99.90
2024-01-19T00:02:44.397Z,99.90
2024-01-19T00:05:13.208Z,99.90
2024-01-19T00:07:41.793Z,99.90
2024-01-19T00:10:11.384Z,1.00
2024-01-19T00:12:40.076Z,1.00
2024-01-19T00:15:10.224Z,1.00
2024-01-19T00:17:40.614Z,1.00
2024-01-19T00:20:12.561Z,1.00
2024-01-19T00:22:41.259Z,44.50
2024-01-19T00:25:10.454Z,99.90
2024-01-19T00:27:39.117Z,99.90
2024-01-19T00:30:09.181Z,99.90
2024-01-19T00:32:39.255Z,1.00
2024-01-19T00:35:09.962Z,1.00
2024-01-19T00:37:39.151Z,99.90
2024-01-19T00:40:12.998Z,99.90
2024-01-19T00:42:42.621Z,1.00
2024-01-19T00:45:12.350Z,99.90
2024-01-19T00:47:42.342Z,99.90
2024-01-19T00:50:16.893Z,98.30
2024-01-19T00:52:45.833Z,96.20
2024-01-19T00:55:14.429Z,90.70
2024-01-19T00:57:43.114Z,93.30
2024-01-19T01:00:13.326Z,81.80
2024-01-19T01:02:43.489Z,53.50
2024-01-19T01:05:12.382Z,57.00
2024-01-19T01:07:40.884Z,45.40
2024-01-19T01:10:11.411Z,23.60
2024-01-19T01:12:39.893Z,23.80
2024-01-19T01:15:10.248Z,14.10
2024-01-19T01:17:40.324Z,26.70
2024-01-19T01:20:13.656Z,22.40
2024-01-19T01:22:42.290Z,25.40
2024-01-19T01:25:10.886Z,13.20
2024-01-19T01:27:39.431Z,10.40
2024-01-19T01:30:11.118Z,1.00
2024-01-19T01:32:39.977Z,5.50
2024-01-19T01:35:10.425Z,9.70
2024-01-19T01:37:39.108Z,6.80
2024-01-19T01:40:09.545Z,20.90
2024-01-19T01:42:38.231Z,17.30
2024-01-19T01:45:08.172Z,15.60
2024-01-19T01:47:36.928Z,15.40
2024-01-19T01:50:07.356Z,14.80
2024-01-19T01:52:37.319Z,19.80
2024-01-19T01:55:06.848Z,1.00
2024-01-19T01:57:35.709Z,1.00
2024-01-19T02:00:05.249Z,1.00
2024-01-19T02:02:34.529Z,1.00
2024-01-19T02:05:03.641Z,1.00
2024-01-19T02:07:32.536Z,1.00
2024-01-19T02:10:03.541Z,1.00
2024-01-19T02:12:32.470Z,1.00
2024-01-19T02:15:00.901Z,1.00
2024-01-19T02:17:29.402Z,1.00
2024-01-19T02:19:57.977Z,1.00
2024-01-19T02:22:27.030Z,1.00
2024-01-19T02:24:57.047Z,1.00
2024-01-19T02:27:26.753Z,1.00
2024-01-19T02:29:55.609Z,1.00
2024-01-19T02:32:24.100Z,1.00
2024-01-19T02:34:52.909Z,1.00
2024-01-19T02:37:22.078Z,1.00
2024-01-19T02:39:50.611Z,1.00
2024-01-19T02:42:20.707Z,1.00
2024-01-19T02:44:49.463Z,1.00
2024-01-19T02:47:18.156Z,1.00
2024-01-19T02:49:46.836Z,1.00
2024-01-19T02:52:15.622Z,1.00
2024-01-19T02:54:44.322Z,1.00
2024-01-19T02:57:12.864Z,1.00
2024-01-19T02:59:43.141Z,1.00
2024-01-19T03:02:12.673Z,1.00
2024-01-19T03:04:41.296Z,1.00
2024-01-19T03:07:09.917Z,1.00
2024-01-19T03:09:51.824Z,1.00
2024-01-19T03:12:20.478Z,1.00
2024-01-19T03:14:50.655Z,1.00
2024-01-19T03:17:20.355Z,1.00
2024-01-19T03:19:49.125Z,1.00
2024-01-19T03:22:17.986Z,1.00
2024-01-19T03:24:46.696Z,1.00
2024-01-19T03:27:15.776Z,1.00
2024-01-19T03:29:45.526Z,13.50
2024-01-19T03:32:15.811Z,99.90
2024-01-19T03:34:44.751Z,99.90
2024-01-19T03:37:13.905Z,99.90
2024-01-19T03:39:42.787Z,99.90
2024-01-19T03:42:11.215Z,99.90
2024-01-19T03:44:41.720Z,99.90
2024-01-19T03:47:10.275Z,99.90
2024-01-19T03:49:42.121Z,99.90
2024-01-19T03:52:11.048Z,99.90
2024-01-19T03:54:39.664Z,99.90
2024-01-19T03:57:10.554Z,99.90
2024-01-19T03:59:39.391Z,99.90
2024-01-19T04:02:07.963Z,99.90
2024-01-19T04:04:36.690Z,99.90
2024-01-19T04:07:06.757Z,99.90
2024-01-19T04:09:35.556Z,99.90
2024-01-19T04:12:14.234Z,99.90
2024-01-19T04:14:43.909Z,99.90
2024-01-19T04:17:13.259Z,99.90
2024-01-19T04:19:42.789Z,99.90
2024-01-19T04:22:12.601Z,99.90
2024-01-19T04:24:41.128Z,99.90
2024-01-19T04:27:09.668Z,99.90
2024-01-19T04:29:38.336Z,99.90
2024-01-19T04:32:07.828Z,99.90
2024-01-19T04:34:36.526Z,99.90
2024-01-19T04:37:05.250Z,99.90
2024-01-19T04:39:35.496Z,99.90
2024-01-19T04:42:04.361Z,99.90
2024-01-19T04:44:32.978Z,99.90
2024-01-19T04:47:01.525Z,99.90
2024-01-19T04:49:30.050Z,99.90
2024-01-19T04:51:58.951Z,99.90
2024-01-19T04:54:27.439Z,99.90
2024-01-19T04:56:57.467Z,99.90
2024-01-19T04:59:26.024Z,99.90
2024-01-19T05:01:54.548Z,1.00
2024-01-19T05:04:23.722Z,1.00
2024-01-19T05:06:52.190Z,1.00
2024-01-19T05:09:21.056Z,1.00
2024-01-19T05:11:49.559Z,1.00
2024-01-19T05:14:20.111Z,1.00
2024-01-19T05:16:48.951Z,1.00
2024-01-19T05:19:17.502Z,1.00
2024-01-19T05:21:46.183Z,1.00
2024-01-19T05:24:14.810Z,1.00
2024-01-19T05:26:43.415Z,1.00
2024-01-19T05:29:11.948Z,1.00
2024-01-19T05:31:42.010Z,1.00
2024-01-19T05:34:11.363Z,99.90
2024-01-19T05:36:41.257Z,1.00
2024-01-19T05:39:10.288Z,1.00
2024-01-19T05:41:38.915Z,1.00
2024-01-19T05:44:07.737Z,1.00
2024-01-19T05:46:36.188Z,1.00
2024-01-19T05:49:06.197Z,1.00
2024-01-19T05:51:34.748Z,1.00
2024-01-19T05:54:04.016Z,1.00
2024-01-19T05:56:32.608Z,1.00
2024-01-19T05:59:01.117Z,1.00
2024-01-19T06:01:29.597Z,1.00
2024-01-19T06:04:01.447Z,1.00
2024-01-19T06:06:31.725Z,1.00
2024-01-19T06:09:00.316Z,1.00
2024-01-19T06:11:29.030Z,1.00
2024-01-19T06:13:57.786Z,1.00
2024-01-19T06:16:26.346Z,99.90
2024-01-19T06:18:55.305Z,1.00
2024-01-19T06:21:24.119Z,1.00
2024-01-19T06:23:54.048Z,1.00
2024-01-19T06:26:22.780Z,1.00
2024-01-19T06:28:51.663Z,1.00
2024-01-19T06:31:20.163Z,1.00
2024-01-19T06:33:48.874Z,1.00
2024-01-19T06:36:17.493Z,1.00
2024-01-19T06:38:46.102Z,1.00
2024-01-19T06:41:17.895Z,1.00
2024-01-19T06:43:46.665Z,1.00
2024-01-19T06:46:15.689Z,1.00
2024-01-19T06:48:44.868Z,1.00
2024-01-19T06:51:18.510Z,1.00
2024-01-19T06:53:47.215Z,1.00
2024-01-19T06:56:17.657Z,1.00
2024-01-19T06:58:46.325Z,1.00
2024-01-19T07:01:15.024Z,1.00
2024-01-19T07:03:43.744Z,1.00
2024-01-19T07:06:12.738Z,1.00
2024-01-19T07:08:41.413Z,1.00
2024-01-19T07:11:09.927Z,1.00
2024-01-19T07:13:40.018Z,1.00
2024-01-19T07:16:10.032Z,1.00
2024-01-19T07:18:39.141Z,1.00
2024-01-19T07:21:07.960Z,1.00
2024-01-19T07:23:38.336Z,1.00
2024-01-19T07:26:07.213Z,1.00
2024-01-19T07:28:35.770Z,1.00
2024-01-19T07:31:06.061Z,1.00
2024-01-19T07:33:37.290Z,1.00
2024-01-19T07:36:07.111Z,1.00
2024-01-19T07:38:35.880Z,1.00
2024-01-19T07:41:07.442Z,1.00
2024-01-19T07:43:36.079Z,1.00
2024-01-19T07:46:06.969Z,1.00
2024-01-19T07:48:35.827Z,1.00
2024-01-19T07:51:04.993Z,1.00
2024-01-19T07:53:34.010Z,1.00
2024-01-19T07:56:02.803Z,1.00
2024-01-19T07:58:31.820Z,1.00
2024-01-19T08:01:00.833Z,1.00
2024-01-19T08:03:31.352Z,1.00
2024-01-19T08:06:00.190Z,1.00
2024-01-19T08:08:29.209Z,1.00
2024-01-19T08:10:58.064Z,1.00
2024-01-19T08:13:26.577Z,1.00
2024-01-19T08:15:55.085Z,1.00
2024-01-19T08:18:23.963Z,1.00
2024-01-19T08:20:54.064Z,1.00
2024-01-19T08:23:22.703Z,1.00
2024-01-19T08:25:51.220Z,1.00
2024-01-19T08:28:19.747Z,1.00
2024-01-19T08:30:48.384Z,11.00
2024-01-19T08:33:17.251Z,1.00
2024-01-19T08:35:46.952Z,1.00
2024-01-19T08:38:16.983Z,1.00
2024-01-19T08:40:50.669Z,99.90
2024-01-19T08:43:19.258Z,1.00
2024-01-19T08:49:10.926Z,1.00
2024-01-19T08:51:39.798Z,1.00
2024-01-19T08:54:09.664Z,1.00
2024-01-19T08:56:43.048Z,1.00
2024-01-19T08:59:14.969Z,47.00
2024-01-19T09:01:43.794Z,1.00
2024-01-19T09:04:12.433Z,1.00
2024-01-19T09:06:45.197Z,1.00
2024-01-19T09:09:16.382Z,1.00
2024-01-19T09:11:45.466Z,1.00
2024-01-19T09:14:14.333Z,14.70
2024-01-19T09:16:44.956Z,15.50
2024-01-19T09:19:14.685Z,22.90
2024-01-19T09:21:45.677Z,23.40
2024-01-19T09:24:15.929Z,32.70
2024-01-19T09:26:44.616Z,37.50
2024-01-19T09:29:13.323Z,27.10
2024-01-19T09:31:45.404Z,1.00
2024-01-19T09:34:15.455Z,19.60
2024-01-19T09:36:44.840Z,43.30
2024-01-19T09:39:13.665Z,1.00
2024-01-19T09:41:51.425Z,14.80
2024-01-19T09:44:22.918Z,54.10
2024-01-19T09:47:24.066Z,21.80
2024-01-19T09:50:05.863Z,18.70
2024-01-19T09:52:50.436Z,6.80
2024-01-19T09:55:22.017Z,1.00
2024-01-19T09:57:53.477Z,1.00
2024-01-19T10:00:23.126Z,1.00
2024-01-19T10:02:53.514Z,1.00
2024-01-19T10:05:24.257Z,1.00
2024-01-19T10:07:56.419Z,1.00
2024-01-19T10:10:24.995Z,1.00
2024-01-19T10:12:55.128Z,95.90
2024-01-19T10:15:24.312Z,99.90
2024-01-19T10:17:55.583Z,99.90
2024-01-19T10:20:24.308Z,99.90
2024-01-19T10:22:51.815Z,99.90
2024-01-19T10:25:21.682Z,99.90
2024-01-19T10:27:52.978Z,99.90
2024-01-19T10:30:29.810Z,99.90
2024-01-19T10:33:07.874Z,99.90
2024-01-19T10:35:40.661Z,99.90
2024-01-19T10:38:11.653Z,99.90
2024-01-19T10:40:40.445Z,99.90
2024-01-19T10:43:09.054Z,99.90
2024-01-19T10:45:39.841Z,99.90
2024-01-19T10:48:10.085Z,99.90
2024-01-19T10:50:38.879Z,99.90
2024-01-19T10:53:16.098Z,99.90
2024-01-19T10:55:50.479Z,99.90
2024-01-19T10:58:19.307Z,99.90
2024-01-19T11:00:49.278Z,99.90
2024-01-19T11:03:19.190Z,99.90
2024-01-19T11:05:51.218Z,99.90
2024-01-19T11:08:20.037Z,99.90
2024-01-19T11:10:50.544Z,99.90
2024-01-19T11:13:23.714Z,99.90
2024-01-19T11:16:00.537Z,99.90
2024-01-19T11:18:30.975Z,99.90
2024-01-19T11:21:00.803Z,99.90
2024-01-19T11:23:30.605Z,99.90
2024-01-19T11:26:12.238Z,99.90
2024-01-19T11:28:57.792Z,99.90
2024-01-19T11:31:34.200Z,99.90
2024-01-19T11:34:03.475Z,99.90
2024-01-19T11:36:50.272Z,99.90
2024-01-19T11:39:42.957Z,99.90
2024-01-19T11:42:32.050Z,99.90
2024-01-19T11:45:01.101Z,99.90
2024-01-19T11:47:44.119Z,99.90
2024-01-19T11:50:14.895Z,99.90
2024-01-19T11:52:47.325Z,99.90
2024-01-19T11:55:39.070Z,99.90
2024-01-19T11:58:39.536Z,99.90
2024-01-19T12:01:10.321Z,99.90
2024-01-19T12:03:41.943Z,99.80
2024-01-19T12:06:11.174Z,99.70
2024-01-19T12:08:39.906Z,99.90
2024-01-19T12:11:11.682Z,99.90
2024-01-19T12:13:48.751Z,99.90
2024-01-19T12:16:25.034Z,99.90
2024-01-19T12:18:59.273Z,99.90
2024-01-19T12:21:28.691Z,99.90
2024-01-19T12:23:59.599Z,99.90
2024-01-19T12:26:28.504Z,99.90
2024-01-19T12:28:58.492Z,99.90
2024-01-19T12:31:31.897Z,99.90
2024-01-19T12:34:13.715Z,99.90
2024-01-19T12:36:42.881Z,99.90
2024-01-19T12:39:15.525Z,99.90
2024-01-19T12:41:46.813Z,99.90
2024-01-19T12:44:16.583Z,99.90
2024-01-19T12:46:50.058Z,99.90
2024-01-19T12:49:20.184Z,99.90
2024-01-19T12:51:49.152Z,99.90
2024-01-19T12:54:19.043Z,99.90
2024-01-19T12:56:49.429Z,99.90
2024-01-19T12:59:24.045Z,99.70
2024-01-19T13:01:52.762Z,99.90
2024-01-19T13:04:24.139Z,99.90
2024-01-19T13:06:53.056Z,99.90
2024-01-19T13:09:23.038Z,99.90
2024-01-19T13:11:51.623Z,99.90
2024-01-19T13:14:26.556Z,99.90
2024-01-19T13:16:57.755Z,99.90
2024-01-19T13:19:28.043Z,99.90
2024-01-19T13:21:59.817Z,99.90
2024-01-19T13:24:29.722Z,99.90
2024-01-19T13:27:03.224Z,99.90
2024-01-19T13:29:32.821Z,99.90
2024-01-19T13:32:01.945Z,99.90
2024-01-19T13:34:32.131Z,99.90
2024-01-19T13:37:00.988Z,99.90
2024-01-19T13:39:30.076Z,99.90
2024-01-19T13:41:59.619Z,99.90
2024-01-19T13:44:28.532Z,99.90
2024-01-19T13:46:57.589Z,99.90
2024-01-19T13:49:26.424Z,99.90
2024-01-19T13:51:56.339Z,99.90
2024-01-19T13:54:25.234Z,99.90
2024-01-19T13:56:53.754Z,99.90
2024-01-19T13:59:22.383Z,99.90
2024-01-19T14:01:51.504Z,99.90
2024-01-19T14:04:20.978Z,99.90
2024-01-19T14:06:50.832Z,99.90
2024-01-19T14:09:21.037Z,99.90
2024-01-19T14:11:50.421Z,99.90
2024-01-19T14:14:19.434Z,99.90
2024-01-19T14:16:49.831Z,99.90
2024-01-19T14:19:18.741Z,99.90
2024-01-19T14:21:47.609Z,99.90
2024-01-19T14:24:16.551Z,99.90
2024-01-19T14:26:47.783Z,99.90
2024-01-19T14:29:17.831Z,99.90
2024-01-19T14:31:47.535Z,99.90
2024-01-19T14:34:18.222Z,99.90
2024-01-19T14:36:48.624Z,99.90
2024-01-19T14:39:17.311Z,99.90
2024-01-19T14:41:47.188Z,99.90
2024-01-19T14:44:16.596Z,99.90
2024-01-19T14:46:46.214Z,99.90
2024-01-19T14:49:25.574Z,99.90
2024-01-19T14:51:54.787Z,99.90
2024-01-19T14:54:23.521Z,99.90
2024-01-19T14:56:53.978Z,99.90
2024-01-19T14:59:22.713Z,99.90
2024-01-19T15:01:52.646Z,99.90
2024-01-19T15:04:21.252Z,99.90
2024-01-19T15:06:50.286Z,99.90
2024-01-19T15:09:18.933Z,99.90
2024-01-19T15:11:47.891Z,99.90
2024-01-19T15:14:17.820Z,99.90
2024-01-19T15:16:46.373Z,99.90
2024-01-19T15:19:15.076Z,99.90
2024-01-19T15:21:43.731Z,99.90
2024-01-19T15:24:12.263Z,99.90
2024-01-19T15:26:41.292Z,99.90
2024-01-19T15:29:14.373Z,99.90
2024-01-19T15:31:44.504Z,99.90
2024-01-19T15:34:13.309Z,99.90
2024-01-19T15:36:43.410Z,99.90
2024-01-19T15:39:12.024Z,99.90
2024-01-19T15:41:40.812Z,99.90
2024-01-19T15:44:10.036Z,99.90
2024-01-19T15:46:38.854Z,99.90
2024-01-19T15:49:08.975Z,99.90
2024-01-19T15:51:37.823Z,99.90
2024-01-19T15:54:06.792Z,99.90
2024-01-19T15:56:37.728Z,99.90
2024-01-19T15:59:08.069Z,99.90
2024-01-19T16:01:40.954Z,99.90
2024-01-19T16:04:13.126Z,99.90
2024-01-19T16:06:41.765Z,99.90
2024-01-19T16:09:11.038Z,99.90
2024-01-19T16:11:42.096Z,99.90
2024-01-19T16:14:11.019Z,99.90
2024-01-19T16:16:40.155Z,99.90
2024-01-19T16:19:10.859Z,99.90
2024-01-19T16:21:40.220Z,99.90
2024-01-19T16:24:09.196Z,99.90
2024-01-19T16:26:37.948Z,99.90
2024-01-19T16:29:06.691Z,99.90
2024-01-19T16:31:35.862Z,99.90
2024-01-19T16:34:10.508Z,99.90
2024-01-19T16:36:42.904Z,99.90
2024-01-19T16:39:11.596Z,99.90
2024-01-19T16:41:43.918Z,99.90
2024-01-19T16:44:13.525Z,99.90
2024-01-19T16:46:43.292Z,99.90
2024-01-19T16:49:11.980Z,99.90
2024-01-19T16:51:42.283Z,99.90
2024-01-19T16:54:10.842Z,99.90
2024-01-19T16:56:44.029Z,99.90
2024-01-19T16:59:14.544Z,99.90
2024-01-19T17:01:43.395Z,99.90
2024-01-19T17:04:12.614Z,99.90
2024-01-19T17:06:42.562Z,99.90
2024-01-19T17:09:11.562Z,99.90
2024-01-19T17:11:41.787Z,99.90
2024-01-19T17:14:12.377Z,99.90
2024-01-19T17:16:41.661Z,99.90
2024-01-19T17:19:13.048Z,99.90
2024-01-19T17:21:45.050Z,99.90
2024-01-19T17:24:13.752Z,99.90
2024-01-19T17:26:43.322Z,99.90
2024-01-19T17:29:14.691Z,99.90
2024-01-19T17:31:44.291Z,99.90
2024-01-19T17:34:13.240Z,99.90
2024-01-19T17:36:43.646Z,99.90
2024-01-19T17:39:12.680Z,99.90
2024-01-19T17:41:42.065Z,99.90
2024-01-19T17:44:12.100Z,99.90
2024-01-19T17:46:40.832Z,99.90
2024-01-19T17:49:09.905Z,99.90
2024-01-19T17:51:38.436Z,99.90
2024-01-19T17:54:08.494Z,99.90
2024-01-19T17:56:39.305Z,99.90
2024-01-19T17:59:09.209Z,99.90
2024-01-19T18:01:38.065Z,99.90
2024-01-19T18:04:06.534Z,99.90
2024-01-19T18:06:35.140Z,99.90
2024-01-19T18:09:05.538Z,99.90
2024-01-19T18:11:35.686Z,99.90
2024-01-19T18:14:04.554Z,99.90
2024-01-19T18:16:33.669Z,99.90
2024-01-19T18:19:02.395Z,99.90
2024-01-19T18:21:33.733Z,99.90
2024-01-19T18:24:04.868Z,99.90
2024-01-19T18:26:35.947Z,99.90
2024-01-19T18:29:04.693Z,99.90
2024-01-19T18:31:33.507Z,99.90
2024-01-19T18:34:03.374Z,99.90
2024-01-19T18:36:32.229Z,99.90
2024-01-19T18:39:02.960Z,99.90
2024-01-19T18:41:31.497Z,99.90
2024-01-19T18:44:01.554Z,99.90
2024-01-19T18:46:30.109Z,99.90
2024-01-19T18:48:58.719Z,99.90
2024-01-19T18:51:27.316Z,99.90
2024-01-19T18:53:54.988Z,99.90
2024-01-19T18:56:24.495Z,99.90
2024-01-19T18:58:52.953Z,99.90
2024-01-19T19:01:24.390Z,99.90
2024-01-19T19:03:54.847Z,99.90
2024-01-19T19:06:27.862Z,99.90
2024-01-19T19:08:57.203Z,99.90
2024-01-19T19:11:26.141Z,99.90
2024-01-19T19:13:56.072Z,99.90
2024-01-19T19:16:36.792Z,99.90
2024-01-19T19:19:14.982Z,99.90
2024-01-19T19:21:44.271Z,99.90
2024-01-19T19:24:13.076Z,99.90
2024-01-19T19:26:42.138Z,99.90
2024-01-19T19:29:10.672Z,99.90
2024-01-19T19:31:40.698Z,99.90
2024-01-19T19:34:09.429Z,99.90
2024-01-19T19:36:39.372Z,99.90
2024-01-19T19:39:08.020Z,99.90
2024-01-19T19:41:37.001Z,99.90
2024-01-19T19:44:06.018Z,99.90
2024-01-19T19:46:34.760Z,99.90
2024-01-19T19:49:05.181Z,99.90
2024-01-19T19:51:37.815Z,99.90
2024-01-19T19:54:07.984Z,99.90
2024-01-19T19:56:39.182Z,99.90
2024-01-19T19:59:08.748Z,99.90
2024-01-19T20:01:37.495Z,99.90
2024-01-19T20:04:08.353Z,99.90
2024-01-19T20:06:37.207Z,99.90
2024-01-19T20:09:05.947Z,99.90
2024-01-19T20:11:36.201Z,99.90
2024-01-19T20:14:05.548Z,99.90
2024-01-19T20:16:35.388Z,99.90
2024-01-19T20:19:09.432Z,99.90
2024-01-19T20:21:38.752Z,99.90
2024-01-19T20:24:08.126Z,99.90
2024-01-19T20:26:37.251Z,99.90
2024-01-19T20:29:06.126Z,99.90
2024-01-19T20:31:35.859Z,99.90
2024-01-19T20:34:04.497Z,99.90
2024-01-19T21:18:20.033Z,99.90
2024-01-19T21:20:48.759Z,99.90
2024-01-19T21:23:17.434Z,99.90
2024-01-19T21:25:46.850Z,99.90
2024-01-19T21:28:16.545Z,99.90
2024-01-19T21:30:45.231Z,99.90
2024-01-19T21:33:14.001Z,99.90
2024-01-19T21:35:44.207Z,99.90
2024-01-19T21:38:14.416Z,99.90
2024-01-19T21:40:43.741Z,99.90
2024-01-19T21:43:12.468Z,99.90
2024-01-19T21:45:41.280Z,99.90
2024-01-19T21:48:11.002Z,99.90
2024-01-19T21:50:39.753Z,99.90
2024-01-19T21:53:09.701Z,99.90
2024-01-19T21:55:38.476Z,99.90
2024-01-19T21:58:07.621Z,99.90
2024-01-19T22:00:36.330Z,99.90
2024-01-19T22:03:05.607Z,99.90
2024-01-19T22:05:34.987Z,99.90
2024-01-19T22:08:06.141Z,99.90
2024-01-19T22:10:36.454Z,99.90
2024-01-19T22:13:05.730Z,99.90
2024-01-19T22:15:35.792Z,99.90
2024-01-19T22:18:04.775Z,99.90
2024-01-19T22:20:33.397Z,99.90
2024-01-19T22:23:02.035Z,99.90
2024-01-19T22:25:30.654Z,99.90
2024-01-19T22:28:00.765Z,99.90
2024-01-19T22:30:29.601Z,99.90
2024-01-19T22:32:58.406Z,99.90
2024-01-19T22:35:27.247Z,99.90
2024-01-19T22:37:55.988Z,99.90
2024-01-19T22:40:24.790Z,99.90
2024-01-19T22:42:53.763Z,99.90
2024-01-19T22:45:24.250Z,99.90
2024-01-19T22:47:52.741Z,99.90
2024-01-19T22:50:21.534Z,99.90
2024-01-19T22:52:50.353Z,99.90
2024-01-19T22:55:20.277Z,99.90
2024-01-19T22:57:50.017Z,99.90
2024-01-19T23:00:20.941Z,99.90
2024-01-19T23:02:51.546Z,99.90
2024-01-19T23:05:20.683Z,99.90
2024-01-19T23:07:51.311Z,99.90
2024-01-19T23:10:20.100Z,99.90
2024-01-19T23:12:49.430Z,99.90
2024-01-19T23:15:19.539Z,99.90
2024-01-19T23:17:48.532Z,99.90
2024-01-19T23:20:19.132Z,99.90
2024-01-19T23:22:48.182Z,99.90
2024-01-19T23:25:23.211Z,99.90
2024-01-19T23:27:58.982Z,99.90
2024-01-19T23:30:27.825Z,99.90
2024-01-19T23:32:58.104Z,99.90
2024-01-19T23:35:28.622Z,99.90
2024-01-19T23:37:57.637Z,99.90
2024-01-19T23:40:26.786Z,99.90
2024-01-19T23:42:56.643Z,99.90
2024-01-19T23:45:26.338Z,99.90
2024-01-19T23:47:55.936Z,99.90
2024-01-19T23:50:25.339Z,99.90
2024-01-19T23:52:55.384Z,99.90
2024-01-19T23:55:24.131Z,99.90
2024-01-19T23:57:52.571Z,99.90
